Valley Peak, Santa Cruz Island Reserve, California Weather observations

Data are for 10 minute period ending at time listed.
 Day   Time   Solar   Ave.   Ave.  Ave.  Vector  Max.   Baro.   Total    
  of    of     Rad.   Air    Rel.  Wind   Wind   Wind  Press.  Precip.   
Year   Day            Temp.  Hum.  Speed  Dir.   Gust                    
2015   (PST)  Kw/m2    F      %     mph   deg.    mph    mb.     in.     
-------------------------------------------------------------------------
  29    1:10   0.00   60.4    52   15.2    43    20.5   968.6    0.00 
  29    1:20   0.00   60.5    52   15.0    46    18.5   968.6    0.00 
  29    1:30   0.00   60.4    52   15.5    46    19.2   968.6    0.00 
  29    1:40   0.00   60.7    50   15.3    47    22.8   968.5    0.00 
  29    1:50   0.00   61.0    49   15.1    50    20.6   968.5    0.00 
  29    2:00   0.00   61.5    48   14.7    50    19.6   968.5    0.00 
  29    2:10   0.00   61.4    48   13.3    51    18.0   968.6    0.00 
  29    2:20   0.00   61.5    47   14.3    54    21.8   968.6    0.00 
  29    2:30   0.00   61.9    46   13.6    52    21.2   968.6    0.00 
  29    2:40   0.00   61.9    46   13.2    52    17.5   968.6    0.00 
  29    2:50   0.00   61.6    48   12.3    47    16.6   968.6    0.00 
  29    3:00   0.00   61.0    50   13.3    46    17.5   968.6    0.00 
  29    3:10   0.00   60.9    50   13.5    45    17.0   968.5    0.00 
  29    3:20   0.00   60.7    51   13.5    43    18.7   968.3    0.00 
  29    3:30   0.00   60.8    51   12.0    38    14.2   968.3    0.00 
  29    3:40   0.00   60.5    52   12.4    40    15.6   968.3    0.00 
  29    3:50   0.00   60.5    52   15.1    46    20.3   968.1    0.00 
  29    4:00   0.00   60.4    52   15.2    48    18.7   968.1    0.00 
  29    4:10   0.00   60.9    49   16.3    46    22.0   968.1    0.00 
  29    4:20   0.00   61.4    47   16.1    45    22.0   967.9    0.00 
  29    4:30   0.00   61.4    48   16.8    44    22.1   967.8    0.00 
  29    4:40   0.00   61.3    48   16.0    43    20.4   967.7    0.00 
  29    4:50   0.00   61.1    49   16.2    38    18.9   967.7    0.00 
  29    5:00   0.00   61.0    50   16.2    30    18.9   967.7    0.00 
  29    5:10   0.00   61.0    50   16.0    28    18.3   967.7    0.00 
  29    5:20   0.00   60.6    51   16.0    31    18.4   967.6    0.00 
  29    5:30   0.00   60.6    51   14.9    25    17.2   967.6    0.00 
  29    5:40   0.00   60.7    51   14.1    19    15.5   967.6    0.00 
  29    5:50   0.00   60.4    51   16.0    21    17.4   967.6    0.00 
  29    6:00   0.00   60.2    52   15.9    22    17.2   967.6    0.00 
  29    6:10   0.00   60.2    52   16.6    22    19.0   967.6    0.00 
  29    6:20   0.00   60.3    51   16.5    23    19.1   967.6    0.00 
  29    6:30   0.00   61.1    48   15.7    30    19.0   967.6    0.00 
  29    6:40   0.00   61.1    48   15.5    33    18.1   967.7    0.00 
  29    6:50   0.00   60.9    49   15.3    23    17.0   967.8    0.00 
  29    7:00   0.00   61.6    46   16.6    27    18.3   967.8    0.00 
  29    7:10   0.00   61.6    47   18.5    28    21.1   967.8    0.00 
  29    7:20   0.00   61.8    46   18.1    27    21.0   967.8    0.00 
  29    7:30   0.01   61.5    47   17.4    23    21.0   967.9    0.00 
  29    7:40   0.02   60.8    50   17.9    28    21.2   967.9    0.00 
  29    7:50   0.03   61.3    47   20.4    24    22.6   967.9    0.00 
  29    8:00   0.05   61.2    50   18.7    30    20.5   967.9    0.00 
  29    8:10   0.06   60.0    54   19.9    34    22.0   967.7    0.00 
  29    8:20   0.05   59.3    56   19.9    32    21.9   967.7    0.00 
  29    8:30   0.04   58.9    57   20.5    30    23.3   967.8    0.00 
  29    8:40   0.05   58.9    57   17.9    30    21.3   968.1    0.00 
  29    8:50   0.06   59.1    56    9.2    25    15.5   968.7    0.00 
  29    9:00   0.07   60.2    53    2.8   202     5.6   969.1    0.00 
  29    9:10   0.08   61.5    48    2.7   328     4.4   969.1    0.00 
  29    9:20   0.11   62.8    46    1.9   251     3.1   969.1    0.00 
  29    9:30   0.14   63.7    46    2.2    57     6.9   969.0    0.00 
  29    9:40   0.17   64.6    50    3.8    67     7.2   969.0    0.00 
  29    9:50   0.18   65.3    47    3.0    48     5.8   969.0    0.00 
  29   10:00   0.20   65.7    48    3.4    39     5.7   969.0    0.00 
  29   10:10   0.23   65.6    47    5.1    28     8.6   968.9    0.00 
  29   10:20   0.27   66.5    48    2.8    42     4.5   968.9    0.00 
  29   10:30   0.28   66.6    45    2.7    24     5.9   968.8    0.00 
  29   10:40   0.30   66.2    46    5.6    34    10.4   968.7    0.00 
  29   10:50   0.34   65.9    46    5.6    29     9.8   968.6    0.00 
  29   11:00   0.35   66.5    47    7.1    43    11.0   968.6    0.00 
  29   11:10   0.41   66.8    45    6.8    35     9.7   968.4    0.00 
  29   11:20   0.47   68.0    43    6.0    39    10.5   968.2    0.00 
  29   11:30   0.47   69.4    42    4.6    44     8.5   968.2    0.00 
  29   11:40   0.43   69.1    41    5.8    37    10.5   968.1    0.00 
  29   11:50   0.40   68.8    42    6.4    35     9.9   967.9    0.00 
  29   12:00   0.48   68.8    42    4.5    37     9.0   967.7    0.00 
  29   12:10   0.52   70.1    41    4.7    41     9.2   967.6    0.00 
  29   12:20   0.53   70.8    40    5.5    40    10.8   967.4    0.00 
  29   12:30   0.54   71.2    39    6.2    44    11.9   967.1    0.00 
  29   12:40   0.56   71.5    39    5.5    40    11.5   966.8    0.00 
  29   12:50   0.44   72.1    39    5.7    43    11.5   966.7    0.00 
  29   13:00   0.59   71.3    39    4.3    35     9.1   966.6    0.00 
  29   13:10   0.66   73.1    37    3.4    44     6.9   966.5    0.00 
  29   13:20   0.55   74.3    37    2.6    58     5.2   966.3    0.00 
  29   13:30   0.51   73.4    39    2.6    36     5.8   966.3    0.00 
  29   13:40   0.53   72.8    40    1.8    37     4.5   966.2    0.00 
  29   13:50   0.53   75.3    39    1.9    80     5.4   966.1    0.00 
  29   14:00   0.52   75.5    38    2.4   110     7.7   966.1    0.00 
  29   14:10   0.50   75.5    38    2.6   129     5.9   966.1    0.00 
  29   14:20   0.42   74.7    38    3.2   128     8.6   966.0    0.00 
  29   14:30   0.35   74.1    39    3.2   111     7.0   966.0    0.00 
  29   14:40   0.28   73.4    39    2.4   125     5.8   965.9    0.00 
  29   14:50   0.34   72.4    41    3.4   132     7.3   965.9    0.00 
  29   15:00   0.32   71.9    40    3.3   143     6.6   965.9    0.00 
  29   15:10   0.25   71.1    40    3.5   142     6.8   966.0    0.00 
  29   15:20   0.26   70.4    40    4.4   144     6.8   966.0    0.00 
  29   15:30   0.26   70.6    40    3.9   140     6.4   966.1    0.00 
  29   15:40   0.19   70.5    40    2.4   123     5.7   966.1    0.00 
  29   15:50   0.14   69.8    43    2.2    95     4.8   966.1    0.00 
  29   16:00   0.14   68.7    47    1.2    95     2.9   966.1    0.00 
  29   16:10   0.12   67.7    47    0.7   171     2.6   966.0    0.00 
  29   16:20   0.10   67.6    46    1.8    24     4.3   966.0    0.00 
  29   16:30   0.08   65.1    51    3.8    22     4.9   966.0    0.00 
  29   16:40   0.07   63.1    51    5.0    22     6.0   966.1    0.00 
  29   16:50   0.04   62.1    51    6.2    17     7.0   966.2    0.00 
  29   17:00   0.04   61.6    53    5.7    21     6.1   966.3    0.00 
  29   17:10   0.04   62.6    49    5.1    25     5.8   966.4    0.00 
  29   17:20   0.02   63.5    44    3.6    16     4.5   966.4    0.00 
  29   17:30   0.01   63.1    44    4.1     6     5.2   966.5    0.00 
  29   17:40   0.00   62.1    47    5.6    13     7.3   966.5    0.00 
  29   17:50   0.00   61.6    49    6.9   358     8.0   966.6    0.00 
  29   18:00   0.00   61.7    49    7.7   354     8.6   966.6    0.00 
  29   18:10   0.00   61.4    49    8.3   350     9.3   966.6    0.00 
  29   18:20   0.00   62.0    46    8.6   350     9.8   966.6    0.00 
  29   18:30   0.00   62.2    44    8.8   356    10.0   966.7    0.00 
  29   18:40   0.00   61.5    47    9.6     3    11.0   966.8    0.00 
  29   18:50   0.00   62.0    45    9.0     6    10.4   966.9    0.00 
  29   19:00   0.00   62.2    45    8.1     8     9.3   966.9    0.00 
  29   19:10   0.00   62.1    45    6.9    15     8.0   966.9    0.00 
  29   19:20   0.00   62.4    44    5.4    21     5.9   967.0    0.00 
  29   19:30   0.00   62.7    43    4.3    32     5.0   967.1    0.00 
  29   19:40   0.00   62.9    43    3.6    34     4.2   967.2    0.00 
  29   19:50   0.00   62.7    44    3.4   116     5.7   967.3    0.00 
  29   20:00   0.00   62.5    46    5.4   135     6.9   967.3    0.00 
  29   20:10   0.00   62.3    47    5.4   134     6.4   967.3    0.00 
  29   20:20   0.00   62.0    48    5.1   137     6.6   967.3    0.00 
  29   20:30   0.00   61.6    49    4.3   144     9.1   967.4    0.00 
  29   20:40   0.00   59.9    58    6.5   143    10.4   967.4    0.00 
  29   20:50   0.00   58.5    66    7.7   149    12.6   967.4    0.00 
  29   21:00   0.00   58.0    73    8.9   171    13.4   967.4    0.00 
  29   21:10   0.00   58.1    67    8.4   174    11.8   967.4    0.00 
  29   21:20   0.00   58.3    67    8.3   175    12.6   967.4    0.00 
  29   21:30   0.00   57.2    80    7.3   168    10.0   967.5    0.00 
  29   21:40   0.00   56.7    81    5.3   180     7.3   967.5    0.00 
  29   21:50   0.00   56.9    74    6.2   182     9.7   967.4    0.00 
  29   22:00   0.00   57.8    69    6.4   180     8.3   967.3    0.00 
  29   22:10   0.00   57.6    76    6.2   187    10.2   967.3    0.00 
  29   22:20   0.00   56.7    83    7.0   173     8.1   967.3    0.00 
  29   22:30   0.00   56.4    82    6.1   166     8.0   967.3    0.00 
  29   22:40   0.00   56.6    79    5.6   165     6.9   967.2    0.00 
  29   22:50   0.00   56.9    70    6.7   154     7.9   967.1    0.00 
  29   23:00   0.00   57.1    64    6.0   136     8.0   967.1    0.00 
  29   23:10   0.00   57.2    67    6.1   148     8.2   967.1    0.00 
  29   23:20   0.00   56.7    72    6.1   146     7.3   967.1    0.00 
  29   23:30   0.00   56.4    68    6.9   142     8.7   967.0    0.00 
  29   23:40   0.00   56.5    66    6.8   138     9.3   967.0    0.00 
  29   23:50   0.00   56.4    67    7.1   136     8.8   967.0    0.00 
  30    0:00   0.00   56.4    65    7.0   134     9.1   967.0    0.00 
  30    0:10   0.00   56.8    63    5.6   139     7.7   966.9    0.00 
  30    0:20   0.00   57.0    64    6.9   135     9.1   966.9    0.00 
  30    0:30   0.00   57.1    65    7.0   136     8.9   966.8    0.00 
  30    0:40   0.00   57.1    64    7.8   132     9.4   966.7    0.00 
  30    0:50   0.00   57.4    64    6.8   128     9.3   966.7    0.00 
  30    1:00   0.00   58.0    56    6.4   120     7.4   966.5    0.00 

Return to Valley Peak, Santa Cruz Island Reserve graphs page.


Western Regional Climate Center,wrcc@dri.edu